sensor_id;sensor_type;location;lat;lon;timestamp;P1;durP1;ratioP1;P2;durP2;ratioP2
21554;SDS011;10938;44.794;-0.676;2022-09-12T00:01:50;0.70;;;0.50;;
21554;SDS011;10938;44.794;-0.676;2022-09-12T00:04:16;0.93;;;0.50;;
21554;SDS011;10938;44.794;-0.676;2022-09-12T00:06:41;0.73;;;0.40;;
21554;SDS011;10938;44.794;-0.676;2022-09-12T00:09:08;2.30;;;0.80;;
21554;SDS011;10938;44.794;-0.676;2022-09-12T00:11:36;0.63;;;0.50;;
21554;SDS011;10938;44.794;-0.676;2022-09-12T00:14:03;0.68;;;0.50;;
21554;SDS011;10938;44.794;-0.676;2022-09-12T00:16:31;1.20;;;0.60;;
21554;SDS011;10938;44.794;-0.676;2022-09-12T00:18:58;0.43;;;0.43;;
21554;SDS011;10938;44.794;-0.676;2022-09-12T00:21:23;0.80;;;0.60;;
21554;SDS011;10938;44.794;-0.676;2022-09-12T00:23:49;0.47;;;0.47;;
21554;SDS011;10938;44.794;-0.676;2022-09-12T00:26:15;0.77;;;0.45;;
21554;SDS011;10938;44.794;-0.676;2022-09-12T00:28:43;0.95;;;0.60;;
21554;SDS011;10938;44.794;-0.676;2022-09-12T00:31:10;2.17;;;0.88;;
21554;SDS011;10938;44.794;-0.676;2022-09-12T00:33:38;0.77;;;0.30;;
21554;SDS011;10938;44.794;-0.676;2022-09-12T00:36:05;0.95;;;0.43;;
21554;SDS011;10938;44.794;-0.676;2022-09-12T00:38:32;2.03;;;0.40;;
21554;SDS011;10938;44.794;-0.676;2022-09-12T00:40:59;3.55;;;0.70;;
21554;SDS011;10938;44.794;-0.676;2022-09-12T00:43:38;2.50;;;0.60;;
21554;SDS011;10938;44.794;-0.676;2022-09-12T00:46:12;1.15;;;0.50;;
21554;SDS011;10938;44.794;-0.676;2022-09-12T00:48:43;0.40;;;0.40;;
21554;SDS011;10938;44.794;-0.676;2022-09-12T00:51:13;0.93;;;0.68;;
21554;SDS011;10938;44.794;-0.676;2022-09-12T00:53:40;1.45;;;0.40;;
21554;SDS011;10938;44.794;-0.676;2022-09-12T00:56:08;1.10;;;0.52;;
21554;SDS011;10938;44.794;-0.676;2022-09-12T00:58:39;0.85;;;0.52;;
21554;SDS011;10938;44.794;-0.676;2022-09-12T01:01:20;1.92;;;0.52;;
21554;SDS011;10938;44.794;-0.676;2022-09-12T01:03:45;0.65;;;0.40;;
21554;SDS011;10938;44.794;-0.676;2022-09-12T01:06:15;1.65;;;0.75;;
21554;SDS011;10938;44.794;-0.676;2022-09-12T01:08:45;0.63;;;0.50;;
21554;SDS011;10938;44.794;-0.676;2022-09-12T01:11:12;1.80;;;0.50;;
21554;SDS011;10938;44.794;-0.676;2022-09-12T01:13:39;0.73;;;0.45;;
21554;SDS011;10938;44.794;-0.676;2022-09-12T01:16:06;0.90;;;0.40;;
21554;SDS011;10938;44.794;-0.676;2022-09-12T01:32:47;0.85;;;0.50;;
21554;SDS011;10938;44.794;-0.676;2022-09-12T01:35:31;0.65;;;0.50;;
21554;SDS011;10938;44.794;-0.676;2022-09-12T01:44:12;1.42;;;0.50;;
21554;SDS011;10938;44.794;-0.676;2022-09-12T01:46:50;0.55;;;0.40;;
21554;SDS011;10938;44.794;-0.676;2022-09-12T01:49:28;1.33;;;0.60;;
21554;SDS011;10938;44.794;-0.676;2022-09-12T01:52:03;0.85;;;0.52;;
21554;SDS011;10938;44.794;-0.676;2022-09-12T01:54:50;0.73;;;0.50;;
21554;SDS011;10938;44.794;-0.676;2022-09-12T01:57:29;0.77;;;0.60;;
21554;SDS011;10938;44.794;-0.676;2022-09-12T02:00:03;5.88;;;0.60;;
21554;SDS011;10938;44.794;-0.676;2022-09-12T02:02:32;4.55;;;0.68;;
21554;SDS011;10938;44.794;-0.676;2022-09-12T02:05:05;0.65;;;0.40;;
21554;SDS011;10938;44.794;-0.676;2022-09-12T02:07:37;0.95;;;0.43;;
21554;SDS011;10938;44.794;-0.676;2022-09-12T02:10:09;2.20;;;0.55;;
21554;SDS011;10938;44.794;-0.676;2022-09-12T02:13:11;3.08;;;0.70;;
21554;SDS011;10938;44.794;-0.676;2022-09-12T02:15:39;0.80;;;0.38;;
21554;SDS011;10938;44.794;-0.676;2022-09-12T02:18:10;2.05;;;0.55;;
21554;SDS011;10938;44.794;-0.676;2022-09-12T02:20:40;1.63;;;0.40;;
21554;SDS011;10938;44.794;-0.676;2022-09-12T02:23:08;1.20;;;0.60;;
21554;SDS011;10938;44.794;-0.676;2022-09-12T02:25:39;0.68;;;0.50;;
21554;SDS011;10938;44.794;-0.676;2022-09-12T02:28:24;1.17;;;0.63;;
21554;SDS011;10938;44.794;-0.676;2022-09-12T02:39:04;1.85;;;0.60;;
21554;SDS011;10938;44.794;-0.676;2022-09-12T02:41:29;0.32;;;0.32;;
21554;SDS011;10938;44.794;-0.676;2022-09-12T02:43:55;1.10;;;0.50;;
21554;SDS011;10938;44.794;-0.676;2022-09-12T02:46:25;1.60;;;0.73;;
21554;SDS011;10938;44.794;-0.676;2022-09-12T02:48:56;0.68;;;0.43;;
21554;SDS011;10938;44.794;-0.676;2022-09-12T02:51:23;0.50;;;0.45;;
21554;SDS011;10938;44.794;-0.676;2022-09-12T02:53:49;1.45;;;0.50;;
21554;SDS011;10938;44.794;-0.676;2022-09-12T02:56:17;1.50;;;0.57;;
21554;SDS011;10938;44.794;-0.676;2022-09-12T02:58:57;1.08;;;0.50;;
21554;SDS011;10938;44.794;-0.676;2022-09-12T03:15:14;1.40;;;0.60;;
21554;SDS011;10938;44.794;-0.676;2022-09-12T03:17:56;1.45;;;0.63;;
21554;SDS011;10938;44.794;-0.676;2022-09-12T03:20:40;1.35;;;0.50;;
21554;SDS011;10938;44.794;-0.676;2022-09-12T03:25:56;0.70;;;0.60;;
21554;SDS011;10938;44.794;-0.676;2022-09-12T03:28:24;2.72;;;0.80;;
21554;SDS011;10938;44.794;-0.676;2022-09-12T03:30:51;0.80;;;0.50;;
21554;SDS011;10938;44.794;-0.676;2022-09-12T03:33:19;2.47;;;0.85;;
21554;SDS011;10938;44.794;-0.676;2022-09-12T03:35:46;0.88;;;0.60;;
21554;SDS011;10938;44.794;-0.676;2022-09-12T03:38:12;1.17;;;0.60;;
21554;SDS011;10938;44.794;-0.676;2022-09-12T03:40:38;2.47;;;0.75;;
21554;SDS011;10938;44.794;-0.676;2022-09-12T03:43:04;0.82;;;0.57;;
21554;SDS011;10938;44.794;-0.676;2022-09-12T03:45:31;0.65;;;0.47;;
21554;SDS011;10938;44.794;-0.676;2022-09-12T03:47:58;1.45;;;0.60;;
21554;SDS011;10938;44.794;-0.676;2022-09-12T03:50:23;1.98;;;0.65;;
21554;SDS011;10938;44.794;-0.676;2022-09-12T03:52:48;1.63;;;0.70;;
21554;SDS011;10938;44.794;-0.676;2022-09-12T03:55:14;3.47;;;0.70;;
21554;SDS011;10938;44.794;-0.676;2022-09-12T03:57:40;1.55;;;0.80;;
21554;SDS011;10938;44.794;-0.676;2022-09-12T04:00:05;1.15;;;0.70;;
21554;SDS011;10938;44.794;-0.676;2022-09-12T04:02:34;10.05;;;1.05;;
21554;SDS011;10938;44.794;-0.676;2022-09-12T04:05:00;1.20;;;0.80;;
21554;SDS011;10938;44.794;-0.676;2022-09-12T04:07:26;1.75;;;0.68;;
21554;SDS011;10938;44.794;-0.676;2022-09-12T04:09:51;2.38;;;0.57;;
21554;SDS011;10938;44.794;-0.676;2022-09-12T04:12:17;1.27;;;0.70;;
21554;SDS011;10938;44.794;-0.676;2022-09-12T04:14:43;0.57;;;0.57;;
21554;SDS011;10938;44.794;-0.676;2022-09-12T04:17:09;1.83;;;0.70;;
21554;SDS011;10938;44.794;-0.676;2022-09-12T04:19:34;1.55;;;0.85;;
21554;SDS011;10938;44.794;-0.676;2022-09-12T04:21:59;1.38;;;0.80;;
21554;SDS011;10938;44.794;-0.676;2022-09-12T04:24:25;2.17;;;0.80;;
21554;SDS011;10938;44.794;-0.676;2022-09-12T04:26:50;2.63;;;0.70;;
21554;SDS011;10938;44.794;-0.676;2022-09-12T04:29:16;1.48;;;0.80;;
21554;SDS011;10938;44.794;-0.676;2022-09-12T04:31:41;1.40;;;0.70;;
21554;SDS011;10938;44.794;-0.676;2022-09-12T04:34:07;1.35;;;0.80;;
21554;SDS011;10938;44.794;-0.676;2022-09-12T04:36:33;12.50;;;0.80;;
21554;SDS011;10938;44.794;-0.676;2022-09-12T04:39:00;1.52;;;0.95;;
21554;SDS011;10938;44.794;-0.676;2022-09-12T04:41:28;3.55;;;0.80;;
21554;SDS011;10938;44.794;-0.676;2022-09-12T04:43:56;2.60;;;0.80;;
21554;SDS011;10938;44.794;-0.676;2022-09-12T04:46:25;1.25;;;0.70;;
21554;SDS011;10938;44.794;-0.676;2022-09-12T04:48:51;1.77;;;0.95;;
21554;SDS011;10938;44.794;-0.676;2022-09-12T04:51:20;2.28;;;0.90;;
21554;SDS011;10938;44.794;-0.676;2022-09-12T04:53:51;3.13;;;1.05;;
21554;SDS011;10938;44.794;-0.676;2022-09-12T04:56:18;3.03;;;0.82;;
21554;SDS011;10938;44.794;-0.676;2022-09-12T04:58:44;1.58;;;0.75;;
21554;SDS011;10938;44.794;-0.676;2022-09-12T05:01:11;2.45;;;0.90;;
21554;SDS011;10938;44.794;-0.676;2022-09-12T05:03:38;0.80;;;0.60;;
21554;SDS011;10938;44.794;-0.676;2022-09-12T05:06:08;3.72;;;1.02;;
21554;SDS011;10938;44.794;-0.676;2022-09-12T05:08:36;2.83;;;0.90;;
21554;SDS011;10938;44.794;-0.676;2022-09-12T05:11:03;4.80;;;1.02;;
21554;SDS011;10938;44.794;-0.676;2022-09-12T05:13:30;2.25;;;1.00;;
21554;SDS011;10938;44.794;-0.676;2022-09-12T05:15:56;1.15;;;0.90;;
21554;SDS011;10938;44.794;-0.676;2022-09-12T05:18:23;2.08;;;1.00;;
21554;SDS011;10938;44.794;-0.676;2022-09-12T05:20:49;3.90;;;1.15;;
21554;SDS011;10938;44.794;-0.676;2022-09-12T05:23:14;2.03;;;0.90;;
21554;SDS011;10938;44.794;-0.676;2022-09-12T05:25:50;2.15;;;0.90;;
21554;SDS011;10938;44.794;-0.676;2022-09-12T05:28:17;2.97;;;1.20;;
21554;SDS011;10938;44.794;-0.676;2022-09-12T05:30:43;3.38;;;1.10;;
21554;SDS011;10938;44.794;-0.676;2022-09-12T05:33:09;3.88;;;1.00;;
21554;SDS011;10938;44.794;-0.676;2022-09-12T05:35:35;1.17;;;0.95;;
21554;SDS011;10938;44.794;-0.676;2022-09-12T05:38:02;2.25;;;1.00;;
21554;SDS011;10938;44.794;-0.676;2022-09-12T05:40:28;2.45;;;0.80;;
21554;SDS011;10938;44.794;-0.676;2022-09-12T05:42:54;5.50;;;1.20;;
21554;SDS011;10938;44.794;-0.676;2022-09-12T05:45:20;4.45;;;1.52;;
21554;SDS011;10938;44.794;-0.676;2022-09-12T05:47:45;3.42;;;1.50;;
21554;SDS011;10938;44.794;-0.676;2022-09-12T05:50:11;8.13;;;1.58;;
21554;SDS011;10938;44.794;-0.676;2022-09-12T05:52:36;4.63;;;1.10;;
21554;SDS011;10938;44.794;-0.676;2022-09-12T05:55:02;3.38;;;1.15;;
21554;SDS011;10938;44.794;-0.676;2022-09-12T05:57:28;5.05;;;1.90;;
21554;SDS011;10938;44.794;-0.676;2022-09-12T05:59:53;2.40;;;1.10;;
21554;SDS011;10938;44.794;-0.676;2022-09-12T06:02:19;3.50;;;1.10;;
21554;SDS011;10938;44.794;-0.676;2022-09-12T06:04:45;2.80;;;1.13;;
21554;SDS011;10938;44.794;-0.676;2022-09-12T06:07:10;2.97;;;1.33;;
21554;SDS011;10938;44.794;-0.676;2022-09-12T06:09:36;5.07;;;1.30;;
21554;SDS011;10938;44.794;-0.676;2022-09-12T06:12:01;5.82;;;1.30;;
21554;SDS011;10938;44.794;-0.676;2022-09-12T06:14:27;3.08;;;1.40;;
21554;SDS011;10938;44.794;-0.676;2022-09-12T06:16:53;4.35;;;1.70;;
21554;SDS011;10938;44.794;-0.676;2022-09-12T06:19:19;6.30;;;1.70;;
21554;SDS011;10938;44.794;-0.676;2022-09-12T06:21:46;1.95;;;1.60;;
21554;SDS011;10938;44.794;-0.676;2022-09-12T06:24:16;4.88;;;1.80;;
21554;SDS011;10938;44.794;-0.676;2022-09-12T06:26:42;4.63;;;1.73;;
21554;SDS011;10938;44.794;-0.676;2022-09-12T06:29:07;3.47;;;1.30;;
21554;SDS011;10938;44.794;-0.676;2022-09-12T06:31:36;9.50;;;1.60;;
21554;SDS011;10938;44.794;-0.676;2022-09-12T06:34:03;3.65;;;1.42;;
21554;SDS011;10938;44.794;-0.676;2022-09-12T06:36:36;3.33;;;1.50;;
21554;SDS011;10938;44.794;-0.676;2022-09-12T06:39:04;3.90;;;1.58;;
21554;SDS011;10938;44.794;-0.676;2022-09-12T06:41:32;2.30;;;1.40;;
21554;SDS011;10938;44.794;-0.676;2022-09-12T06:43:58;3.83;;;1.70;;
21554;SDS011;10938;44.794;-0.676;2022-09-12T06:46:25;2.97;;;1.40;;
21554;SDS011;10938;44.794;-0.676;2022-09-12T06:48:50;3.50;;;1.42;;
21554;SDS011;10938;44.794;-0.676;2022-09-12T06:51:17;3.15;;;1.40;;
21554;SDS011;10938;44.794;-0.676;2022-09-12T06:53:44;4.78;;;1.50;;
21554;SDS011;10938;44.794;-0.676;2022-09-12T06:56:12;4.70;;;1.45;;
21554;SDS011;10938;44.794;-0.676;2022-09-12T06:58:45;3.17;;;1.50;;
21554;SDS011;10938;44.794;-0.676;2022-09-12T07:01:16;4.63;;;1.35;;
21554;SDS011;10938;44.794;-0.676;2022-09-12T07:03:46;4.22;;;1.50;;
21554;SDS011;10938;44.794;-0.676;2022-09-12T07:06:14;3.20;;;1.70;;
21554;SDS011;10938;44.794;-0.676;2022-09-12T07:08:41;2.33;;;1.33;;
21554;SDS011;10938;44.794;-0.676;2022-09-12T07:11:08;2.92;;;1.50;;
21554;SDS011;10938;44.794;-0.676;2022-09-12T07:13:36;11.35;;;1.40;;
21554;SDS011;10938;44.794;-0.676;2022-09-12T07:16:02;3.88;;;1.60;;
21554;SDS011;10938;44.794;-0.676;2022-09-12T07:18:29;4.80;;;1.60;;
21554;SDS011;10938;44.794;-0.676;2022-09-12T07:20:55;4.13;;;1.42;;
21554;SDS011;10938;44.794;-0.676;2022-09-12T07:23:23;3.78;;;1.63;;
21554;SDS011;10938;44.794;-0.676;2022-09-12T07:25:52;3.97;;;1.57;;
21554;SDS011;10938;44.794;-0.676;2022-09-12T07:28:18;3.83;;;1.95;;
21554;SDS011;10938;44.794;-0.676;2022-09-12T07:30:44;8.65;;;2.08;;
21554;SDS011;10938;44.794;-0.676;2022-09-12T07:33:10;4.57;;;2.00;;
21554;SDS011;10938;44.794;-0.676;2022-09-12T07:35:36;4.40;;;1.70;;
21554;SDS011;10938;44.794;-0.676;2022-09-12T07:38:02;3.85;;;1.50;;
21554;SDS011;10938;44.794;-0.676;2022-09-12T07:40:27;4.85;;;2.05;;
21554;SDS011;10938;44.794;-0.676;2022-09-12T07:42:53;5.50;;;1.80;;
21554;SDS011;10938;44.794;-0.676;2022-09-12T07:45:19;2.83;;;1.40;;
21554;SDS011;10938;44.794;-0.676;2022-09-12T07:47:44;5.27;;;1.80;;
21554;SDS011;10938;44.794;-0.676;2022-09-12T07:50:09;6.65;;;1.70;;
21554;SDS011;10938;44.794;-0.676;2022-09-12T07:52:35;3.65;;;1.80;;
21554;SDS011;10938;44.794;-0.676;2022-09-12T07:55:01;5.32;;;1.70;;
21554;SDS011;10938;44.794;-0.676;2022-09-12T07:57:27;3.63;;;1.70;;
21554;SDS011;10938;44.794;-0.676;2022-09-12T07:59:52;2.67;;;1.58;;
21554;SDS011;10938;44.794;-0.676;2022-09-12T08:02:17;3.67;;;1.80;;
21554;SDS011;10938;44.794;-0.676;2022-09-12T08:04:43;6.20;;;1.95;;
21554;SDS011;10938;44.794;-0.676;2022-09-12T08:07:09;2.08;;;1.48;;
21554;SDS011;10938;44.794;-0.676;2022-09-12T08:09:34;4.40;;;1.80;;
21554;SDS011;10938;44.794;-0.676;2022-09-12T08:12:00;4.15;;;1.85;;
21554;SDS011;10938;44.794;-0.676;2022-09-12T08:14:26;5.43;;;1.63;;
21554;SDS011;10938;44.794;-0.676;2022-09-12T08:16:51;11.02;;;1.92;;
21554;SDS011;10938;44.794;-0.676;2022-09-12T08:19:17;4.70;;;1.60;;
21554;SDS011;10938;44.794;-0.676;2022-09-12T08:21:43;2.72;;;1.98;;
21554;SDS011;10938;44.794;-0.676;2022-09-12T08:24:09;3.30;;;1.60;;
21554;SDS011;10938;44.794;-0.676;2022-09-12T08:26:36;4.03;;;1.80;;
21554;SDS011;10938;44.794;-0.676;2022-09-12T08:29:02;5.78;;;1.50;;
21554;SDS011;10938;44.794;-0.676;2022-09-12T08:31:28;10.70;;;1.80;;
21554;SDS011;10938;44.794;-0.676;2022-09-12T08:34:00;4.47;;;1.90;;
21554;SDS011;10938;44.794;-0.676;2022-09-12T08:36:28;4.63;;;2.08;;
21554;SDS011;10938;44.794;-0.676;2022-09-12T08:38:55;5.00;;;1.80;;
21554;SDS011;10938;44.794;-0.676;2022-09-12T08:49:08;9.40;;;1.92;;
21554;SDS011;10938;44.794;-0.676;2022-09-12T08:51:36;9.82;;;1.88;;
21554;SDS011;10938;44.794;-0.676;2022-09-12T08:54:03;5.85;;;1.70;;
21554;SDS011;10938;44.794;-0.676;2022-09-12T08:56:35;4.22;;;1.50;;
21554;SDS011;10938;44.794;-0.676;2022-09-12T08:59:01;2.08;;;1.60;;
21554;SDS011;10938;44.794;-0.676;2022-09-12T09:01:34;4.68;;;1.52;;
21554;SDS011;10938;44.794;-0.676;2022-09-12T09:18:02;6.07;;;1.95;;
21554;SDS011;10938;44.794;-0.676;2022-09-12T09:25:56;3.58;;;1.50;;
21554;SDS011;10938;44.794;-0.676;2022-09-12T09:28:35;3.17;;;1.63;;
21554;SDS011;10938;44.794;-0.676;2022-09-12T09:31:22;2.17;;;1.50;;
21554;SDS011;10938;44.794;-0.676;2022-09-12T09:33:53;6.22;;;1.50;;
21554;SDS011;10938;44.794;-0.676;2022-09-12T09:37:03;3.80;;;1.40;;
21554;SDS011;10938;44.794;-0.676;2022-09-12T09:39:18;7.60;;;1.98;;
21554;SDS011;10938;44.794;-0.676;2022-09-12T09:44:34;3.60;;;1.75;;
21554;SDS011;10938;44.794;-0.676;2022-09-12T09:47:00;6.43;;;1.80;;
21554;SDS011;10938;44.794;-0.676;2022-09-12T09:49:27;7.63;;;1.88;;
21554;SDS011;10938;44.794;-0.676;2022-09-12T09:51:55;2.90;;;1.70;;
21554;SDS011;10938;44.794;-0.676;2022-09-12T09:54:30;3.72;;;1.80;;
21554;SDS011;10938;44.794;-0.676;2022-09-12T09:57:01;5.15;;;1.73;;
21554;SDS011;10938;44.794;-0.676;2022-09-12T09:59:32;3.55;;;1.50;;
21554;SDS011;10938;44.794;-0.676;2022-09-12T10:01:58;5.20;;;1.90;;
21554;SDS011;10938;44.794;-0.676;2022-09-12T10:04:53;6.20;;;1.80;;
21554;SDS011;10938;44.794;-0.676;2022-09-12T10:07:21;3.65;;;1.70;;
21554;SDS011;10938;44.794;-0.676;2022-09-12T10:10:33;4.93;;;1.85;;
21554;SDS011;10938;44.794;-0.676;2022-09-12T10:12:42;2.67;;;1.73;;
21554;SDS011;10938;44.794;-0.676;2022-09-12T10:15:41;5.07;;;1.98;;
21554;SDS011;10938;44.794;-0.676;2022-09-12T10:18:00;3.10;;;1.60;;
21554;SDS011;10938;44.794;-0.676;2022-09-12T10:20:31;5.18;;;2.15;;
21554;SDS011;10938;44.794;-0.676;2022-09-12T10:23:29;4.18;;;1.67;;
21554;SDS011;10938;44.794;-0.676;2022-09-12T10:25:55;3.42;;;1.90;;
21554;SDS011;10938;44.794;-0.676;2022-09-12T10:28:32;3.90;;;2.00;;
21554;SDS011;10938;44.794;-0.676;2022-09-12T10:31:13;4.30;;;1.90;;
21554;SDS011;10938;44.794;-0.676;2022-09-12T10:34:26;4.82;;;1.73;;
21554;SDS011;10938;44.794;-0.676;2022-09-12T10:36:57;7.13;;;1.90;;
21554;SDS011;10938;44.794;-0.676;2022-09-12T10:39:28;4.55;;;1.80;;
21554;SDS011;10938;44.794;-0.676;2022-09-12T10:41:55;5.00;;;1.70;;
21554;SDS011;10938;44.794;-0.676;2022-09-12T10:44:25;6.15;;;2.00;;
21554;SDS011;10938;44.794;-0.676;2022-09-12T10:46:56;2.47;;;1.75;;
21554;SDS011;10938;44.794;-0.676;2022-09-12T10:49:30;13.18;;;3.58;;
21554;SDS011;10938;44.794;-0.676;2022-09-12T10:55:00;7.40;;;1.98;;
21554;SDS011;10938;44.794;-0.676;2022-09-12T10:57:35;8.48;;;2.85;;
21554;SDS011;10938;44.794;-0.676;2022-09-12T11:00:09;3.78;;;1.95;;
21554;SDS011;10938;44.794;-0.676;2022-09-12T11:02:56;9.85;;;2.13;;
21554;SDS011;10938;44.794;-0.676;2022-09-12T11:08:11;5.43;;;1.88;;
21554;SDS011;10938;44.794;-0.676;2022-09-12T11:13:52;5.68;;;1.95;;
21554;SDS011;10938;44.794;-0.676;2022-09-12T11:16:32;12.68;;;4.80;;
21554;SDS011;10938;44.794;-0.676;2022-09-12T11:27:30;3.42;;;1.73;;
21554;SDS011;10938;44.794;-0.676;2022-09-12T11:29:58;4.03;;;1.92;;
21554;SDS011;10938;44.794;-0.676;2022-09-12T11:40:43;4.18;;;1.95;;
21554;SDS011;10938;44.794;-0.676;2022-09-12T11:49:00;6.18;;;2.10;;
21554;SDS011;10938;44.794;-0.676;2022-09-12T11:57:05;7.15;;;2.10;;
21554;SDS011;10938;44.794;-0.676;2022-09-12T12:02:12;7.28;;;1.95;;
21554;SDS011;10938;44.794;-0.676;2022-09-12T12:04:51;6.85;;;2.13;;
21554;SDS011;10938;44.794;-0.676;2022-09-12T12:07:25;7.07;;;2.05;;
21554;SDS011;10938;44.794;-0.676;2022-09-12T12:09:58;6.63;;;2.00;;
21554;SDS011;10938;44.794;-0.676;2022-09-12T12:12:24;4.03;;;2.00;;
21554;SDS011;10938;44.794;-0.676;2022-09-12T12:14:53;8.00;;;2.13;;
21554;SDS011;10938;44.794;-0.676;2022-09-12T12:17:21;5.32;;;1.83;;
21554;SDS011;10938;44.794;-0.676;2022-09-12T12:20:12;3.72;;;2.00;;
21554;SDS011;10938;44.794;-0.676;2022-09-12T12:22:49;4.68;;;1.90;;
21554;SDS011;10938;44.794;-0.676;2022-09-12T12:27:52;6.30;;;2.40;;
21554;SDS011;10938;44.794;-0.676;2022-09-12T12:33:50;7.55;;;2.17;;
21554;SDS011;10938;44.794;-0.676;2022-09-12T12:35:44;4.85;;;2.00;;
21554;SDS011;10938;44.794;-0.676;2022-09-12T12:40:52;6.97;;;2.20;;
21554;SDS011;10938;44.794;-0.676;2022-09-12T12:43:28;7.85;;;2.33;;
21554;SDS011;10938;44.794;-0.676;2022-09-12T12:46:06;7.35;;;2.33;;
21554;SDS011;10938;44.794;-0.676;2022-09-12T12:48:35;5.43;;;2.30;;
21554;SDS011;10938;44.794;-0.676;2022-09-12T12:51:30;7.13;;;2.15;;
21554;SDS011;10938;44.794;-0.676;2022-09-12T12:54:00;6.45;;;2.00;;
21554;SDS011;10938;44.794;-0.676;2022-09-12T12:56:47;9.18;;;2.63;;
21554;SDS011;10938;44.794;-0.676;2022-09-12T12:59:20;11.70;;;2.90;;
21554;SDS011;10938;44.794;-0.676;2022-09-12T13:01:48;10.73;;;2.75;;
21554;SDS011;10938;44.794;-0.676;2022-09-12T13:04:19;9.35;;;2.25;;
21554;SDS011;10938;44.794;-0.676;2022-09-12T13:07:04;6.88;;;2.40;;
21554;SDS011;10938;44.794;-0.676;2022-09-12T13:09:42;6.25;;;2.15;;
21554;SDS011;10938;44.794;-0.676;2022-09-12T13:12:19;5.63;;;2.30;;
21554;SDS011;10938;44.794;-0.676;2022-09-12T13:14:49;6.13;;;2.53;;
21554;SDS011;10938;44.794;-0.676;2022-09-12T13:19:50;10.73;;;2.57;;
21554;SDS011;10938;44.794;-0.676;2022-09-12T13:22:20;10.68;;;2.65;;
21554;SDS011;10938;44.794;-0.676;2022-09-12T13:24:47;10.38;;;2.42;;
21554;SDS011;10938;44.794;-0.676;2022-09-12T13:27:25;11.52;;;2.75;;
21554;SDS011;10938;44.794;-0.676;2022-09-12T13:32:39;8.82;;;2.25;;
21554;SDS011;10938;44.794;-0.676;2022-09-12T13:35:09;6.32;;;2.60;;
21554;SDS011;10938;44.794;-0.676;2022-09-12T13:40:46;9.25;;;2.40;;
21554;SDS011;10938;44.794;-0.676;2022-09-12T13:43:35;7.03;;;2.47;;
21554;SDS011;10938;44.794;-0.676;2022-09-12T13:46:05;6.38;;;2.38;;
21554;SDS011;10938;44.794;-0.676;2022-09-12T13:48:32;9.20;;;2.60;;
21554;SDS011;10938;44.794;-0.676;2022-09-12T13:50:58;7.95;;;2.30;;
21554;SDS011;10938;44.794;-0.676;2022-09-12T13:53:27;10.73;;;2.40;;
21554;SDS011;10938;44.794;-0.676;2022-09-12T13:56:06;4.95;;;2.03;;
21554;SDS011;10938;44.794;-0.676;2022-09-12T13:58:32;6.88;;;2.50;;
21554;SDS011;10938;44.794;-0.676;2022-09-12T14:01:03;6.60;;;2.10;;
21554;SDS011;10938;44.794;-0.676;2022-09-12T14:03:40;12.68;;;2.88;;
21554;SDS011;10938;44.794;-0.676;2022-09-12T14:06:33;11.73;;;2.38;;
21554;SDS011;10938;44.794;-0.676;2022-09-12T14:09:14;9.10;;;2.72;;
21554;SDS011;10938;44.794;-0.676;2022-09-12T14:11:45;8.30;;;2.35;;
21554;SDS011;10938;44.794;-0.676;2022-09-12T14:14:18;7.28;;;2.40;;
21554;SDS011;10938;44.794;-0.676;2022-09-12T14:16:51;8.30;;;2.30;;
21554;SDS011;10938;44.794;-0.676;2022-09-12T14:19:19;6.47;;;2.05;;
21554;SDS011;10938;44.794;-0.676;2022-09-12T14:21:47;10.15;;;2.55;;
21554;SDS011;10938;44.794;-0.676;2022-09-12T14:24:14;5.88;;;2.30;;
21554;SDS011;10938;44.794;-0.676;2022-09-12T14:26:41;7.00;;;2.25;;
21554;SDS011;10938;44.794;-0.676;2022-09-12T14:29:09;3.50;;;2.13;;
21554;SDS011;10938;44.794;-0.676;2022-09-12T14:31:40;6.03;;;2.15;;
21554;SDS011;10938;44.794;-0.676;2022-09-12T14:34:14;7.32;;;2.40;;
21554;SDS011;10938;44.794;-0.676;2022-09-12T14:36:44;9.25;;;2.25;;
21554;SDS011;10938;44.794;-0.676;2022-09-12T14:41:43;6.30;;;2.30;;
21554;SDS011;10938;44.794;-0.676;2022-09-12T14:44:59;8.68;;;2.13;;
21554;SDS011;10938;44.794;-0.676;2022-09-12T14:47:22;6.13;;;2.30;;
21554;SDS011;10938;44.794;-0.676;2022-09-12T14:49:50;4.20;;;2.50;;
21554;SDS011;10938;44.794;-0.676;2022-09-12T14:52:29;7.03;;;2.00;;
21554;SDS011;10938;44.794;-0.676;2022-09-12T15:02:43;5.45;;;2.20;;
21554;SDS011;10938;44.794;-0.676;2022-09-12T15:07:42;7.77;;;2.20;;
21554;SDS011;10938;44.794;-0.676;2022-09-12T15:12:42;5.15;;;2.10;;
21554;SDS011;10938;44.794;-0.676;2022-09-12T15:15:17;7.53;;;2.15;;
21554;SDS011;10938;44.794;-0.676;2022-09-12T15:17:45;4.30;;;2.10;;
21554;SDS011;10938;44.794;-0.676;2022-09-12T15:20:11;8.30;;;2.03;;
21554;SDS011;10938;44.794;-0.676;2022-09-12T15:22:38;5.00;;;2.33;;
21554;SDS011;10938;44.794;-0.676;2022-09-12T15:25:06;7.18;;;2.60;;
21554;SDS011;10938;44.794;-0.676;2022-09-12T15:27:31;5.45;;;2.17;;
21554;SDS011;10938;44.794;-0.676;2022-09-12T15:29:57;5.63;;;2.15;;
21554;SDS011;10938;44.794;-0.676;2022-09-12T15:32:23;7.32;;;2.65;;
21554;SDS011;10938;44.794;-0.676;2022-09-12T15:34:51;5.38;;;2.38;;
21554;SDS011;10938;44.794;-0.676;2022-09-12T15:37:18;8.88;;;2.00;;
21554;SDS011;10938;44.794;-0.676;2022-09-12T15:39:44;6.53;;;2.45;;
21554;SDS011;10938;44.794;-0.676;2022-09-12T15:42:11;9.30;;;2.50;;
21554;SDS011;10938;44.794;-0.676;2022-09-12T15:44:37;8.35;;;2.35;;
21554;SDS011;10938;44.794;-0.676;2022-09-12T15:47:03;2.70;;;1.80;;
21554;SDS011;10938;44.794;-0.676;2022-09-12T15:49:29;4.10;;;2.17;;
21554;SDS011;10938;44.794;-0.676;2022-09-12T15:51:54;8.07;;;2.33;;
21554;SDS011;10938;44.794;-0.676;2022-09-12T15:54:20;8.68;;;2.63;;
21554;SDS011;10938;44.794;-0.676;2022-09-12T15:56:45;8.82;;;2.25;;
21554;SDS011;10938;44.794;-0.676;2022-09-12T15:59:11;10.30;;;2.22;;
21554;SDS011;10938;44.794;-0.676;2022-09-12T16:01:37;8.88;;;2.58;;
21554;SDS011;10938;44.794;-0.676;2022-09-12T16:04:03;14.00;;;2.78;;
21554;SDS011;10938;44.794;-0.676;2022-09-12T16:06:45;5.00;;;2.28;;
21554;SDS011;10938;44.794;-0.676;2022-09-12T16:09:10;7.40;;;2.85;;
21554;SDS011;10938;44.794;-0.676;2022-09-12T16:11:36;9.00;;;2.20;;
21554;SDS011;10938;44.794;-0.676;2022-09-12T16:14:02;8.52;;;2.35;;
21554;SDS011;10938;44.794;-0.676;2022-09-12T16:16:29;7.10;;;2.47;;
21554;SDS011;10938;44.794;-0.676;2022-09-12T16:18:55;6.22;;;2.03;;
21554;SDS011;10938;44.794;-0.676;2022-09-12T16:21:20;7.25;;;2.88;;
21554;SDS011;10938;44.794;-0.676;2022-09-12T16:23:46;8.30;;;2.50;;
21554;SDS011;10938;44.794;-0.676;2022-09-12T16:26:13;6.53;;;2.20;;
21554;SDS011;10938;44.794;-0.676;2022-09-12T16:28:39;4.85;;;2.20;;
21554;SDS011;10938;44.794;-0.676;2022-09-12T16:31:05;6.43;;;1.90;;
21554;SDS011;10938;44.794;-0.676;2022-09-12T16:33:32;4.60;;;2.28;;
21554;SDS011;10938;44.794;-0.676;2022-09-12T16:38:28;5.15;;;2.00;;
21554;SDS011;10938;44.794;-0.676;2022-09-12T16:41:04;8.52;;;2.60;;
21554;SDS011;10938;44.794;-0.676;2022-09-12T16:43:31;9.20;;;1.92;;
21554;SDS011;10938;44.794;-0.676;2022-09-12T16:48:31;5.22;;;2.05;;
21554;SDS011;10938;44.794;-0.676;2022-09-12T16:50:58;8.55;;;2.00;;
21554;SDS011;10938;44.794;-0.676;2022-09-12T16:53:26;4.90;;;2.40;;
21554;SDS011;10938;44.794;-0.676;2022-09-12T16:55:54;4.03;;;2.15;;
21554;SDS011;10938;44.794;-0.676;2022-09-12T16:58:19;7.25;;;2.25;;
21554;SDS011;10938;44.794;-0.676;2022-09-12T17:00:45;4.90;;;2.42;;
21554;SDS011;10938;44.794;-0.676;2022-09-12T17:03:14;4.28;;;1.80;;
21554;SDS011;10938;44.794;-0.676;2022-09-12T17:05:43;3.67;;;2.03;;
21554;SDS011;10938;44.794;-0.676;2022-09-12T17:08:11;13.98;;;3.33;;
21554;SDS011;10938;44.794;-0.676;2022-09-12T17:10:39;9.30;;;2.72;;
21554;SDS011;10938;44.794;-0.676;2022-09-12T17:13:05;8.88;;;3.05;;
21554;SDS011;10938;44.794;-0.676;2022-09-12T17:15:30;11.80;;;3.20;;
21554;SDS011;10938;44.794;-0.676;2022-09-12T17:17:55;9.38;;;2.35;;
21554;SDS011;10938;44.794;-0.676;2022-09-12T17:20:22;8.07;;;2.58;;